createdAt,value
2018-12-25T00:00:48.380Z,5.83
2018-12-25T00:03:44.940Z,6.90
2018-12-25T00:06:42.589Z,6.53
2018-12-25T00:09:39.447Z,5.85
2018-12-25T00:12:37.261Z,6.20
2018-12-25T00:15:34.065Z,6.50
2018-12-25T00:18:31.589Z,5.63
2018-12-25T00:21:28.191Z,6.33
2018-12-25T00:24:25.856Z,5.77
2018-12-25T00:27:24.544Z,6.55
2018-12-25T00:30:22.267Z,5.72
2018-12-25T00:33:18.870Z,6.00
2018-12-25T00:36:16.984Z,6.00
2018-12-25T00:39:13.663Z,5.80
2018-12-25T00:42:09.429Z,5.03
2018-12-25T00:45:07.601Z,6.53
2018-12-25T00:48:04.532Z,5.60
2018-12-25T00:51:02.657Z,6.00
2018-12-25T00:54:01.479Z,5.37
2018-12-25T00:56:59.345Z,5.10
2018-12-25T00:59:56.095Z,5.57
2018-12-25T01:02:53.657Z,5.05
2018-12-25T01:05:50.546Z,4.40
2018-12-25T01:08:49.169Z,5.37
2018-12-25T01:11:45.668Z,4.90
2018-12-25T01:38:32.534Z,5.80
2018-12-25T01:41:02.702Z,5.70
2018-12-25T01:43:32.868Z,4.83
2018-12-25T01:46:03.095Z,5.40
2018-12-25T01:48:33.247Z,4.57
2018-12-25T01:51:04.402Z,4.83
2018-12-25T01:53:34.591Z,5.08
2018-12-25T01:56:04.936Z,4.70
2018-12-25T01:58:35.049Z,4.70
2018-12-25T02:01:05.345Z,5.40
2018-12-25T02:03:36.319Z,5.20
2018-12-25T02:06:06.540Z,4.87
2018-12-25T02:08:36.753Z,5.20
2018-12-25T02:11:06.920Z,4.90
2018-12-25T02:13:37.174Z,5.58
2018-12-25T02:16:08.924Z,5.12
2018-12-25T02:18:39.075Z,4.93
2018-12-25T02:21:12.890Z,5.33
2018-12-25T02:23:43.859Z,5.80
2018-12-25T02:26:14.146Z,5.50
2018-12-25T02:28:44.353Z,5.73
2018-12-25T02:31:14.604Z,5.00
2018-12-25T02:33:44.877Z,5.80
2018-12-25T02:36:16.876Z,5.20
2018-12-25T02:38:47.037Z,5.63
2018-12-25T02:41:17.318Z,5.30
2018-12-25T02:43:48.926Z,5.60
2018-12-25T02:46:19.138Z,5.60
2018-12-25T02:48:49.342Z,5.33
2018-12-25T02:51:21.246Z,5.00
2018-12-25T02:53:51.415Z,5.90
2018-12-25T02:56:21.535Z,5.97
2018-12-25T02:58:52.654Z,6.17
2018-12-25T03:01:24.720Z,5.30
2018-12-25T03:03:54.885Z,5.23
2018-12-25T03:06:25.014Z,5.73
2018-12-25T03:08:55.180Z,5.80
2018-12-25T03:11:25.306Z,5.33
2018-12-25T03:13:55.470Z,5.90
2018-12-25T03:16:25.642Z,5.87
2018-12-25T03:18:55.794Z,6.33
2018-12-25T03:21:25.929Z,5.80
2018-12-25T03:23:56.107Z,6.53
2018-12-25T03:26:26.361Z,6.42
2018-12-25T03:28:56.645Z,6.07
2018-12-25T03:31:27.667Z,6.60
2018-12-25T03:33:57.821Z,6.10
2018-12-25T03:36:28.007Z,6.40
2018-12-25T03:38:58.196Z,5.97
2018-12-25T03:41:30.998Z,6.50
2018-12-25T03:44:02.720Z,6.40
2018-12-25T03:46:32.900Z,6.27
2018-12-25T03:49:03.171Z,6.90
2018-12-25T03:51:33.281Z,6.20
2018-12-25T03:54:03.512Z,6.63
2018-12-25T03:56:33.638Z,7.23
2018-12-25T03:59:03.814Z,7.10
2018-12-25T04:01:34.701Z,6.83
2018-12-25T04:04:04.918Z,7.20
2018-12-25T04:06:35.834Z,6.47
2018-12-25T04:09:07.521Z,6.60
2018-12-25T04:11:37.640Z,7.30
2018-12-25T04:14:08.676Z,7.13
2018-12-25T04:16:38.844Z,7.23
2018-12-25T04:19:09.047Z,7.00
2018-12-25T04:21:39.223Z,6.90
2018-12-25T04:24:10.235Z,7.40
2018-12-25T04:26:40.437Z,7.10
2018-12-25T04:29:12.278Z,8.05
2018-12-25T04:31:42.398Z,7.57
2018-12-25T04:34:12.627Z,7.50
2018-12-25T04:36:43.562Z,7.17
2018-12-25T04:39:13.647Z,7.22
2018-12-25T04:41:43.749Z,7.47
2018-12-25T04:44:13.923Z,7.30
2018-12-25T04:46:44.118Z,7.70
2018-12-25T04:49:14.297Z,6.67
2018-12-25T04:51:44.540Z,7.30
2018-12-25T04:54:16.371Z,6.33
2018-12-25T04:56:46.624Z,7.30
2018-12-25T04:59:18.619Z,7.73
2018-12-25T05:01:49.584Z,7.63
2018-12-25T05:04:19.810Z,7.37
2018-12-25T05:06:50.138Z,7.87
2018-12-25T05:09:22.638Z,7.05
2018-12-25T05:11:52.871Z,8.47
2018-12-25T05:14:23.098Z,8.35
2018-12-25T05:16:53.296Z,7.50
2018-12-25T05:19:23.492Z,7.40
2018-12-25T05:21:53.827Z,6.70
2018-12-25T05:24:24.816Z,7.20
2018-12-25T05:26:56.576Z,8.27
2018-12-25T05:29:26.769Z,7.90
2018-12-25T05:31:56.954Z,7.90
2018-12-25T05:34:28.787Z,7.33
2018-12-25T05:36:59.714Z,7.53
2018-12-25T05:39:29.902Z,6.83
2018-12-25T05:42:00.099Z,7.97
2018-12-25T05:44:30.370Z,9.30
2018-12-25T05:47:00.553Z,8.10
2018-12-25T05:49:31.006Z,7.70
2018-12-25T05:52:04.426Z,7.60
2018-12-25T05:54:34.570Z,7.70
2018-12-25T05:57:04.812Z,7.70
2018-12-25T05:59:35.061Z,7.10
2018-12-25T06:02:05.275Z,7.45
2018-12-25T06:04:36.262Z,7.20
2018-12-25T06:07:06.454Z,7.50
2018-12-25T06:09:37.497Z,7.43
2018-12-25T06:12:07.616Z,7.83
2018-12-25T06:14:37.808Z,7.35
2018-12-25T06:17:07.985Z,7.90
2018-12-25T06:19:38.126Z,8.00
2018-12-25T06:22:08.328Z,7.57
2018-12-25T06:24:38.468Z,7.00
2018-12-25T06:27:08.745Z,8.30
2018-12-25T06:29:39.859Z,8.20
2018-12-25T06:32:10.031Z,7.87
2018-12-25T06:34:40.279Z,7.60
2018-12-25T06:37:10.449Z,8.17
2018-12-25T06:39:41.337Z,7.50
2018-12-25T06:42:13.095Z,7.90
2018-12-25T06:44:43.216Z,7.67
2018-12-25T06:47:13.399Z,8.07
2018-12-25T06:49:43.505Z,7.50
2018-12-25T06:52:14.459Z,7.40
2018-12-25T06:54:44.547Z,6.53
2018-12-25T06:57:16.710Z,7.10
2018-12-25T06:59:47.584Z,7.80
2018-12-25T07:02:18.534Z,7.60
2018-12-25T07:04:53.460Z,7.25
2018-12-25T07:07:23.711Z,7.20
2018-12-25T07:09:53.828Z,7.33
2018-12-25T07:12:23.913Z,7.33
2018-12-25T07:14:54.048Z,7.17
2018-12-25T07:17:24.114Z,7.40
2018-12-25T07:19:54.338Z,7.60
2018-12-25T07:22:24.560Z,6.40
2018-12-25T07:24:55.708Z,7.87
2018-12-25T07:27:26.716Z,7.55
2018-12-25T07:29:56.881Z,6.97
2018-12-25T07:32:27.314Z,7.28
2018-12-25T07:34:57.521Z,7.70
2018-12-25T07:37:27.618Z,8.18
2018-12-25T07:39:57.757Z,8.05
2018-12-25T07:42:27.943Z,7.00
2018-12-25T07:44:58.096Z,7.33
2018-12-25T07:47:28.332Z,7.40
2018-12-25T07:49:58.644Z,7.70
2018-12-25T07:52:28.844Z,7.03
2018-12-25T07:54:59.733Z,7.78
2018-12-25T07:57:30.672Z,6.80
2018-12-25T08:00:01.584Z,6.92
2018-12-25T08:02:31.680Z,7.37
2018-12-25T08:05:01.747Z,7.47
2018-12-25T08:07:31.939Z,7.70
2018-12-25T08:10:02.887Z,7.80
2018-12-25T08:12:34.874Z,8.23
2018-12-25T08:15:05.134Z,7.70
2018-12-25T08:17:36.400Z,8.27
2018-12-25T08:20:07.445Z,8.80
2018-12-25T08:22:37.626Z,7.73
2018-12-25T08:25:07.793Z,8.28
2018-12-25T08:27:38.059Z,7.62
2018-12-25T08:30:08.302Z,7.63
2018-12-25T08:32:38.467Z,7.80
2018-12-25T08:35:09.616Z,8.25
2018-12-25T08:37:42.394Z,7.28
2018-12-25T08:40:12.571Z,7.53
2018-12-25T08:42:42.710Z,7.93
2018-12-25T08:45:12.873Z,8.30
2018-12-25T08:47:43.064Z,8.50
2018-12-25T08:50:14.107Z,8.70
2018-12-25T08:52:45.809Z,7.07
2018-12-25T08:55:15.975Z,7.20
2018-12-25T08:57:46.134Z,7.33
2018-12-25T09:00:17.048Z,7.33
2018-12-25T09:02:47.322Z,7.00
2018-12-25T09:05:17.585Z,7.23
2018-12-25T09:07:47.845Z,6.60
2018-12-25T09:10:18.040Z,8.47
2018-12-25T09:12:50.669Z,10.80
2018-12-25T09:15:20.841Z,7.37
2018-12-25T09:17:51.771Z,7.20
2018-12-25T09:20:22.772Z,6.17
2018-12-25T09:22:52.976Z,6.80
2018-12-25T09:25:24.134Z,7.28
2018-12-25T09:27:55.114Z,6.17
2018-12-25T09:30:25.305Z,5.93
2018-12-25T09:32:55.624Z,5.83
2018-12-25T09:35:28.163Z,8.30
2018-12-25T09:37:58.402Z,6.40
2018-12-25T09:40:30.117Z,5.90
2018-12-25T09:43:00.277Z,6.30
2018-12-25T09:48:18.909Z,7.30
2018-12-25T09:50:49.093Z,6.90
2018-12-25T09:53:19.309Z,6.40
2018-12-25T09:55:49.529Z,5.60
2018-12-25T09:58:19.695Z,7.10
2018-12-25T10:00:50.745Z,7.23
2018-12-25T10:03:22.253Z,7.30
2018-12-25T10:05:52.418Z,6.20
2018-12-25T10:08:22.619Z,6.00
2018-12-25T10:10:52.791Z,7.10
2018-12-25T10:13:22.948Z,7.30
2018-12-25T10:15:56.643Z,6.05
2018-12-25T10:18:28.520Z,6.13
2018-12-25T10:20:58.743Z,7.40
2018-12-25T10:23:28.917Z,5.97
2018-12-25T10:25:59.813Z,6.03
2018-12-25T10:28:30.031Z,6.60
2018-12-25T10:31:00.967Z,7.20
2018-12-25T10:33:31.983Z,6.80
2018-12-25T10:36:02.226Z,6.45
2018-12-25T10:38:33.222Z,6.60
2018-12-25T10:41:03.474Z,6.93
2018-12-25T10:43:34.911Z,6.37
2018-12-25T10:46:05.246Z,7.00
2018-12-25T10:48:35.398Z,6.08
2018-12-25T10:51:05.610Z,6.70
2018-12-25T10:53:35.774Z,6.37
2018-12-25T10:56:06.677Z,6.80
2018-12-25T10:58:36.811Z,6.73
2018-12-25T11:01:23.956Z,6.80
2018-12-25T11:03:55.230Z,7.40
2018-12-25T11:06:25.284Z,7.13
2018-12-25T11:08:55.362Z,8.67
2018-12-25T11:11:25.584Z,10.23
2018-12-25T11:13:56.514Z,7.73
2018-12-25T11:16:27.555Z,7.20
2018-12-25T11:18:57.749Z,9.00
2018-12-25T11:21:27.973Z,6.03
2018-12-25T11:23:58.088Z,8.07
2018-12-25T11:26:29.234Z,6.90
2018-12-25T11:28:59.418Z,8.08
2018-12-25T11:31:31.210Z,6.97
2018-12-25T11:34:02.678Z,7.75
2018-12-25T11:36:32.889Z,8.13
2018-12-25T11:39:03.776Z,7.00
2018-12-25T11:41:35.548Z,8.27
2018-12-25T11:44:08.080Z,7.83
2018-12-25T11:46:38.260Z,7.90
2018-12-25T11:49:08.423Z,6.30
2018-12-25T11:51:38.736Z,6.73
2018-12-25T11:54:10.486Z,6.97
2018-12-25T11:56:41.777Z,6.03
2018-12-25T11:59:13.538Z,6.53
2018-12-25T12:01:43.733Z,6.37
2018-12-25T12:04:13.893Z,6.60
2018-12-25T12:06:44.083Z,5.40
2018-12-25T12:09:14.362Z,5.90
2018-12-25T12:11:45.344Z,4.43
2018-12-25T12:14:15.561Z,4.90
2018-12-25T12:16:45.724Z,7.47
2018-12-25T12:19:16.712Z,4.20
2018-12-25T12:21:47.756Z,4.57
2018-12-25T12:24:18.909Z,4.43
2018-12-25T12:26:49.138Z,4.53
2018-12-25T12:29:20.977Z,4.67
2018-12-25T12:31:51.917Z,3.53
2018-12-25T12:34:22.059Z,4.77
2018-12-25T12:36:52.210Z,3.57
2018-12-25T12:39:22.383Z,5.07
2018-12-25T12:41:54.270Z,4.33
2018-12-25T12:44:25.524Z,4.13
2018-12-25T12:46:56.587Z,4.57
2018-12-25T12:49:26.697Z,4.23
2018-12-25T12:51:56.873Z,3.90
2018-12-25T12:54:27.118Z,4.07
2018-12-25T12:56:57.332Z,4.30
2018-12-25T12:59:29.043Z,4.20
2018-12-25T13:01:59.250Z,3.83
2018-12-25T13:04:29.520Z,3.93
2018-12-25T13:06:59.635Z,3.77
2018-12-25T13:09:29.881Z,5.07
2018-12-25T13:12:00.062Z,4.23
2018-12-25T13:14:31.705Z,4.23
2018-12-25T13:17:02.703Z,4.73
2018-12-25T13:19:32.928Z,4.47
2018-12-25T13:22:03.844Z,3.97
2018-12-25T13:24:35.599Z,4.33
2018-12-25T13:27:05.988Z,3.70
2018-12-25T13:29:36.211Z,4.90
2018-12-25T13:32:06.319Z,4.50
2018-12-25T13:34:37.543Z,4.80
2018-12-25T13:37:07.753Z,4.90
2018-12-25T13:39:37.895Z,5.20
2018-12-25T13:42:08.886Z,4.62
2018-12-25T13:44:39.800Z,5.00
2018-12-25T13:47:10.069Z,5.37
2018-12-25T13:49:40.985Z,6.10
2018-12-25T13:52:11.150Z,6.00
2018-12-25T13:54:41.405Z,6.47
2018-12-25T13:57:11.652Z,5.60
2018-12-25T13:59:42.043Z,5.97
2018-12-25T14:02:12.194Z,5.75
2018-12-25T14:04:42.397Z,6.17
2018-12-25T14:07:12.679Z,7.00
2018-12-25T14:09:42.799Z,6.20
2018-12-25T14:12:12.934Z,6.05
2018-12-25T14:14:43.242Z,5.60
2018-12-25T14:17:13.828Z,5.22
2018-12-25T14:19:44.004Z,5.70
2018-12-25T14:22:15.996Z,5.27
2018-12-25T14:24:46.142Z,5.90
2018-12-25T14:27:16.367Z,5.60
2018-12-25T14:29:46.611Z,5.70
2018-12-25T14:32:17.575Z,5.00
2018-12-25T14:34:47.711Z,5.30
2018-12-25T14:37:17.817Z,5.20
2018-12-25T14:39:47.912Z,5.80
2018-12-25T14:42:18.072Z,5.50
2018-12-25T14:44:48.192Z,5.50
2018-12-25T14:47:18.345Z,5.47
2018-12-25T14:49:48.562Z,5.27
2018-12-25T14:52:19.007Z,5.47
2018-12-25T14:54:50.642Z,5.60
2018-12-25T14:57:20.797Z,6.30
2018-12-25T14:59:51.761Z,5.80
2018-12-25T15:02:22.760Z,5.40
2018-12-25T15:04:54.935Z,5.20
2018-12-25T15:07:25.907Z,5.27
2018-12-25T15:09:56.936Z,5.20
2018-12-25T15:12:27.069Z,5.28
2018-12-25T15:14:58.367Z,6.70
2018-12-25T15:17:28.553Z,6.30
2018-12-25T15:19:58.718Z,6.07
2018-12-25T15:22:28.857Z,5.20
2018-12-25T15:24:59.333Z,5.70
2018-12-25T15:27:29.595Z,6.10
2018-12-25T15:30:00.235Z,5.63
2018-12-25T15:32:30.378Z,5.10
2018-12-25T15:35:00.673Z,5.63
2018-12-25T15:37:30.899Z,5.97
2018-12-25T15:40:01.045Z,6.23
2018-12-25T15:42:33.449Z,5.70
2018-12-25T15:45:03.620Z,5.43
2018-12-25T15:47:33.809Z,5.75
2018-12-25T15:50:04.049Z,5.63
2018-12-25T15:52:34.222Z,5.70
2018-12-25T15:55:04.383Z,5.77
2018-12-25T15:57:34.531Z,5.40
2018-12-25T16:00:05.770Z,5.92
2018-12-25T16:02:35.926Z,5.80
2018-12-25T16:05:06.936Z,5.37
2018-12-25T16:07:37.161Z,5.40
2018-12-25T16:10:07.342Z,5.90
2018-12-25T16:12:37.594Z,5.67
2018-12-25T16:15:07.858Z,5.80
2018-12-25T16:17:41.279Z,6.25
2018-12-25T16:20:12.523Z,6.07
2018-12-25T16:22:42.723Z,7.13
2018-12-25T16:25:14.443Z,5.87
2018-12-25T16:27:44.658Z,6.57
2018-12-25T16:30:14.886Z,6.50
2018-12-25T16:32:45.004Z,6.37
2018-12-25T16:35:21.548Z,6.00
2018-12-25T16:37:51.706Z,6.40
2018-12-25T16:40:21.907Z,7.23
2018-12-25T16:42:52.077Z,6.20
2018-12-25T16:45:23.117Z,6.83
2018-12-25T16:47:54.026Z,6.80
2018-12-25T16:50:25.062Z,6.90
2018-12-25T16:52:56.043Z,7.43
2018-12-25T16:55:26.260Z,8.80
2018-12-25T16:57:56.449Z,7.00
2018-12-25T17:00:27.388Z,8.83
2018-12-25T17:02:57.615Z,6.93
2018-12-25T17:05:27.837Z,8.07
2018-12-25T17:07:58.101Z,7.03
2018-12-25T17:10:28.816Z,7.03
2018-12-25T17:12:59.713Z,7.25
2018-12-25T17:15:29.918Z,6.97
2018-12-25T17:18:02.530Z,7.03
2018-12-25T17:20:32.647Z,6.67
2018-12-25T17:23:02.824Z,7.23
2018-12-25T17:25:33.043Z,7.17
2018-12-25T17:28:03.167Z,7.83
2018-12-25T17:30:33.381Z,6.60
2018-12-25T17:33:04.361Z,7.70
2018-12-25T17:35:35.376Z,7.70
2018-12-25T17:38:05.487Z,7.47
2018-12-25T17:40:35.737Z,7.20
2018-12-25T17:43:06.713Z,7.20
2018-12-25T17:45:37.708Z,7.03
2018-12-25T17:48:07.970Z,8.40
2018-12-25T17:50:38.229Z,8.83
2018-12-25T17:53:11.518Z,7.90
2018-12-25T17:55:41.750Z,7.73
2018-12-25T17:58:12.864Z,8.40
2018-12-25T18:00:43.055Z,9.57
2018-12-25T18:03:14.867Z,10.73
2018-12-25T18:05:46.571Z,9.97
2018-12-25T18:08:16.768Z,10.70
2018-12-25T18:10:47.727Z,10.98
2018-12-25T18:13:18.715Z,11.05
2018-12-25T18:15:48.885Z,11.00
2018-12-25T18:18:19.137Z,11.03
2018-12-25T18:20:49.341Z,11.07
2018-12-25T18:23:19.660Z,10.13
2018-12-25T18:25:49.828Z,10.17
2018-12-25T18:28:20.785Z,9.50
2018-12-25T18:30:51.075Z,10.63
2018-12-25T18:33:22.032Z,8.93
2018-12-25T18:35:52.168Z,8.03
2018-12-25T18:38:22.895Z,8.83
2018-12-25T18:40:53.844Z,8.63
2018-12-25T18:43:23.960Z,8.07
2018-12-25T18:45:54.241Z,8.80
2018-12-25T18:48:24.406Z,8.30
2018-12-25T18:50:54.585Z,9.43
2018-12-25T18:53:24.772Z,9.03
2018-12-25T18:55:54.960Z,9.00
2018-12-25T18:58:26.841Z,8.33
2018-12-25T19:00:57.925Z,8.47
2018-12-25T19:03:28.083Z,8.30
2018-12-25T19:05:58.307Z,8.70
2018-12-25T19:08:29.361Z,8.80
2018-12-25T19:11:02.406Z,9.68
2018-12-25T19:13:32.557Z,9.63
2018-12-25T19:16:03.603Z,9.23
2018-12-25T19:18:34.555Z,10.17
2018-12-25T19:21:04.692Z,8.57
2018-12-25T19:23:35.858Z,8.97
2018-12-25T19:26:06.803Z,10.70
2018-12-25T19:28:37.063Z,9.30
2018-12-25T19:31:08.072Z,9.70
2018-12-25T19:33:38.972Z,9.27
2018-12-25T19:36:09.167Z,9.63
2018-12-25T19:38:39.488Z,9.10
2018-12-25T19:41:10.303Z,9.95
2018-12-25T19:43:40.604Z,9.43
2018-12-25T19:46:11.004Z,9.20
2018-12-25T19:48:41.186Z,8.77
2018-12-25T19:51:13.793Z,9.47
2018-12-25T19:53:44.853Z,8.93
2018-12-25T19:56:14.963Z,9.63
2018-12-25T19:58:45.143Z,9.70
2018-12-25T20:01:15.291Z,11.88
2018-12-25T20:04:07.666Z,12.07
2018-12-25T20:07:26.500Z,11.07
2018-12-25T20:10:29.680Z,9.23
2018-12-25T20:13:35.624Z,11.27
2018-12-25T20:17:01.896Z,11.08
2018-12-25T20:20:16.215Z,21.03
2018-12-25T20:23:09.119Z,13.70
2018-12-25T20:26:20.328Z,11.97
2018-12-25T20:29:42.482Z,10.50
2018-12-25T20:32:38.080Z,10.43
2018-12-25T20:35:58.404Z,9.75
2018-12-25T20:39:02.482Z,10.00
2018-12-25T20:42:10.573Z,9.87
2018-12-25T20:45:17.619Z,11.12
2018-12-25T20:48:30.694Z,10.10
2018-12-25T20:51:51.166Z,9.47
2018-12-25T20:55:10.340Z,8.77
2018-12-25T20:58:39.456Z,10.23
2018-12-25T21:01:50.815Z,9.67
2018-12-25T21:05:06.308Z,11.00
2018-12-25T21:08:19.405Z,11.40
2018-12-25T21:11:42.755Z,10.27
2018-12-25T21:15:04.367Z,9.97
2018-12-25T21:18:26.354Z,9.73
2018-12-25T21:21:30.370Z,9.57
2018-12-25T21:24:36.048Z,9.40
2018-12-25T21:27:33.158Z,9.30
2018-12-25T21:30:10.362Z,10.20
2018-12-25T21:32:42.446Z,10.07
2018-12-25T21:35:22.828Z,9.90
2018-12-25T21:37:54.070Z,10.80
2018-12-25T21:40:24.383Z,9.10
2018-12-25T21:42:55.160Z,8.70
2018-12-25T21:45:25.572Z,9.20
2018-12-25T21:47:57.771Z,9.53
2018-12-25T21:50:28.337Z,10.37
2018-12-25T21:52:58.595Z,9.10
2018-12-25T21:55:29.395Z,8.87
2018-12-25T21:58:00.395Z,9.10
2018-12-25T22:00:32.796Z,10.43
2018-12-25T22:03:04.744Z,9.93
2018-12-25T22:05:35.116Z,10.37
2018-12-25T22:08:05.256Z,10.73
2018-12-25T22:10:36.219Z,10.30
2018-12-25T22:13:06.384Z,10.27
2018-12-25T22:15:38.155Z,11.00
2018-12-25T22:18:09.584Z,11.27
2018-12-25T22:20:40.674Z,10.40
2018-12-25T22:23:12.565Z,10.38
2018-12-25T22:25:42.889Z,11.47
2018-12-25T22:28:13.278Z,10.13
2018-12-25T22:30:43.543Z,11.10
2018-12-25T22:33:13.736Z,11.05
2018-12-25T22:35:44.075Z,10.40
2018-12-25T22:38:14.415Z,12.73
2018-12-25T22:40:44.651Z,12.97
2018-12-25T22:43:14.845Z,10.60
2018-12-25T22:45:45.077Z,13.13
2018-12-25T22:48:15.351Z,12.20
2018-12-25T22:50:45.602Z,12.43
2018-12-25T22:53:15.790Z,11.63
2018-12-25T22:55:46.033Z,12.07
2018-12-25T22:58:17.111Z,11.33
2018-12-25T23:00:47.445Z,11.50
2018-12-25T23:03:18.413Z,10.45
2018-12-25T23:05:48.594Z,10.43
2018-12-25T23:08:18.767Z,10.80
2018-12-25T23:10:49.079Z,10.60
2018-12-25T23:13:21.127Z,11.30
2018-12-25T23:15:52.150Z,11.67
2018-12-25T23:18:23.063Z,10.20
2018-12-25T23:20:53.293Z,11.30
2018-12-25T23:23:23.454Z,9.80
2018-12-25T23:25:53.651Z,11.40
2018-12-25T23:28:23.784Z,10.75
2018-12-25T23:30:54.119Z,11.27
2018-12-25T23:33:24.415Z,12.30
2018-12-25T23:35:54.612Z,12.90
2018-12-25T23:38:24.769Z,11.03
2018-12-25T23:40:55.748Z,11.33
2018-12-25T23:43:26.683Z,11.90
2018-12-25T23:45:58.542Z,13.97
2018-12-25T23:48:28.716Z,11.07
2018-12-25T23:50:58.940Z,10.67
2018-12-25T23:53:29.078Z,11.50
2018-12-25T23:55:59.367Z,11.63
2018-12-25T23:58:30.752Z,11.83
